createdAt,value
2023-02-12T00:02:27.302Z,102386.20
2023-02-12T00:04:54.104Z,102390.47
2023-02-12T00:07:20.812Z,102388.48
2023-02-12T00:09:47.397Z,102379.58
2023-02-12T00:12:14.037Z,102373.81
2023-02-12T00:14:40.711Z,102376.16
2023-02-12T00:17:07.380Z,102384.06
2023-02-12T00:19:33.969Z,102379.63
2023-02-12T00:22:00.643Z,102383.30
2023-02-12T00:24:28.011Z,102382.79
2023-02-12T00:26:54.736Z,102382.34
2023-02-12T00:29:21.393Z,102383.95
2023-02-12T00:31:48.607Z,102383.98
2023-02-12T00:34:15.746Z,102381.03
2023-02-12T00:36:42.513Z,102381.75
2023-02-12T00:39:11.455Z,102381.65
2023-02-12T00:41:38.077Z,102381.36
2023-02-12T00:44:04.950Z,102379.27
2023-02-12T00:46:34.953Z,102377.90
2023-02-12T00:49:02.134Z,102382.52
2023-02-12T00:51:31.970Z,102386.59
2023-02-12T00:53:58.682Z,102386.98
2023-02-12T00:56:25.316Z,102384.71
2023-02-12T00:58:51.987Z,102385.77
2023-02-12T01:01:18.951Z,102383.54
2023-02-12T01:03:45.801Z,102388.09
2023-02-12T01:06:12.543Z,102390.07
2023-02-12T01:08:39.194Z,102389.19
2023-02-12T01:11:06.536Z,102382.73
2023-02-12T01:13:34.522Z,102383.00
2023-02-12T01:16:27.855Z,102385.54
2023-02-12T01:18:56.902Z,102384.60
2023-02-12T01:21:27.851Z,102379.31
2023-02-12T01:23:55.456Z,102375.87
2023-02-12T01:26:22.773Z,102366.39
2023-02-12T01:28:56.122Z,102360.19
2023-02-12T01:31:26.414Z,102363.16
2023-02-12T01:33:55.874Z,102364.77
2023-02-12T01:36:23.676Z,102357.55
2023-02-12T01:38:50.997Z,102349.87
2023-02-12T01:41:23.665Z,102348.84
2023-02-12T01:44:09.418Z,102341.98
2023-02-12T01:46:36.627Z,102335.63
2023-02-12T01:49:06.778Z,102333.95
2023-02-12T01:51:34.765Z,102328.63
2023-02-12T01:54:06.349Z,102328.34
2023-02-12T01:56:33.985Z,102328.59
2023-02-12T01:59:00.795Z,102329.20
2023-02-12T02:01:30.015Z,102324.27
2023-02-12T02:04:08.351Z,102322.16
2023-02-12T02:06:42.975Z,102329.30
2023-02-12T02:09:09.661Z,102332.73
2023-02-12T02:11:55.121Z,102334.45
2023-02-12T02:14:33.926Z,102335.30
2023-02-12T02:17:27.633Z,102333.72
2023-02-12T02:20:01.710Z,102327.25
2023-02-12T02:22:34.934Z,102321.58
2023-02-12T02:25:35.453Z,102320.15
2023-02-12T02:28:23.966Z,102313.82
2023-02-12T02:31:05.604Z,102309.61
2023-02-12T02:33:35.097Z,102307.63
2023-02-12T02:36:54.448Z,102307.40
2023-02-12T02:39:39.060Z,102304.58
2023-02-12T02:42:27.222Z,102302.42
2023-02-12T02:44:58.234Z,102294.44
2023-02-12T02:47:32.685Z,102294.53
2023-02-12T02:50:06.183Z,102283.96
2023-02-12T02:52:45.627Z,102281.83
2023-02-12T02:55:16.955Z,102286.86
2023-02-12T02:57:58.777Z,102288.59
2023-02-12T03:00:37.223Z,102285.41
2023-02-12T03:03:15.930Z,102279.41
2023-02-12T03:05:49.552Z,102272.92
2023-02-12T03:08:29.992Z,102276.44
2023-02-12T03:11:03.869Z,102281.71
2023-02-12T03:13:37.872Z,102283.43
2023-02-12T03:16:22.984Z,102280.79
2023-02-12T03:18:58.609Z,102282.30
2023-02-12T03:21:32.429Z,102278.06
2023-02-12T03:24:10.572Z,102266.80
2023-02-12T03:27:11.799Z,102258.03
2023-02-12T03:29:38.574Z,102266.08
2023-02-12T03:32:23.366Z,102265.15
2023-02-12T03:35:14.429Z,102265.41
2023-02-12T03:37:51.650Z,102271.03
2023-02-12T03:40:22.765Z,102269.30
2023-02-12T03:43:00.491Z,102261.45
2023-02-12T03:45:49.447Z,102255.84
2023-02-12T03:48:23.113Z,102260.08
2023-02-12T03:51:03.580Z,102263.94
2023-02-12T03:53:31.615Z,102273.59
2023-02-12T03:56:05.479Z,102279.16
2023-02-12T03:58:35.737Z,102277.23
2023-02-12T04:01:03.165Z,102285.98
2023-02-12T04:03:31.226Z,102289.52
2023-02-12T04:05:57.931Z,102284.73
2023-02-12T04:08:27.266Z,102283.80
2023-02-12T04:11:04.178Z,102279.71
2023-02-12T04:13:42.488Z,102284.56
2023-02-12T04:16:18.145Z,102287.48
2023-02-12T04:18:49.590Z,102287.26
2023-02-12T04:21:58.833Z,102282.73
2023-02-12T04:24:38.486Z,102282.89
2023-02-12T04:27:34.393Z,102284.40
2023-02-12T04:30:19.179Z,102281.20
2023-02-12T04:33:07.657Z,102285.89
2023-02-12T04:35:38.806Z,102287.59
2023-02-12T04:38:16.878Z,102283.71
2023-02-12T04:40:44.736Z,102275.91
2023-02-12T04:43:11.392Z,102277.42
2023-02-12T04:45:38.853Z,102283.59
2023-02-12T04:48:05.984Z,102285.45
2023-02-12T04:50:42.462Z,102280.44
2023-02-12T04:53:10.969Z,102282.63
2023-02-12T04:55:38.076Z,102285.41
2023-02-12T04:58:05.739Z,102279.45
2023-02-12T05:00:32.819Z,102280.45
2023-02-12T05:02:59.568Z,102276.52
2023-02-12T05:05:27.144Z,102282.45
2023-02-12T05:07:53.884Z,102283.65
2023-02-12T05:10:20.487Z,102285.30
2023-02-12T05:12:47.173Z,102286.14
2023-02-12T05:15:13.817Z,102286.58
2023-02-12T05:17:40.566Z,102282.70
2023-02-12T05:20:08.191Z,102282.17
2023-02-12T05:22:34.938Z,102287.56
2023-02-12T05:25:01.528Z,102289.73
2023-02-12T05:27:28.188Z,102285.54
2023-02-12T05:29:54.792Z,102278.33
2023-02-12T05:32:21.353Z,102271.23
2023-02-12T05:34:47.945Z,102272.34
2023-02-12T05:37:14.597Z,102265.75
2023-02-12T05:39:41.487Z,102260.39
2023-02-12T05:42:08.132Z,102256.64
2023-02-12T05:44:34.748Z,102264.19
2023-02-12T05:47:01.380Z,102275.98
2023-02-12T05:49:28.081Z,102281.77
2023-02-12T05:51:54.713Z,102283.52
2023-02-12T05:54:21.333Z,102288.72
2023-02-12T05:56:48.332Z,102289.36
2023-02-12T05:59:18.508Z,102283.83
2023-02-12T06:01:47.485Z,102286.57
2023-02-12T06:04:19.586Z,102287.51
2023-02-12T06:06:46.403Z,102290.08
2023-02-12T06:09:14.613Z,102296.63
2023-02-12T06:11:42.065Z,102301.83
2023-02-12T06:14:13.720Z,102306.88
2023-02-12T06:16:40.583Z,102306.36
2023-02-12T06:19:07.435Z,102309.65
2023-02-12T06:21:34.251Z,102312.71
2023-02-12T06:24:01.214Z,102318.95
2023-02-12T06:26:27.935Z,102323.86
2023-02-12T06:28:55.022Z,102329.31
2023-02-12T06:31:26.026Z,102334.19
2023-02-12T06:33:53.874Z,102335.02
2023-02-12T06:36:21.194Z,102339.92
2023-02-12T06:38:48.978Z,102345.45
2023-02-12T06:41:16.544Z,102353.11
2023-02-12T06:43:44.130Z,102357.93
2023-02-12T06:46:11.225Z,102359.66
2023-02-12T06:48:37.998Z,102363.94
2023-02-12T06:51:11.039Z,102367.88
2023-02-12T06:53:38.000Z,102368.50
2023-02-12T06:56:07.188Z,102370.38
2023-02-12T06:58:33.949Z,102363.98
2023-02-12T07:01:17.798Z,102361.55
2023-02-12T07:03:49.856Z,102356.36
2023-02-12T07:06:17.330Z,102354.17
2023-02-12T07:08:43.977Z,102360.64
2023-02-12T07:11:11.108Z,102361.48
2023-02-12T07:13:37.895Z,102361.86
2023-02-12T07:16:06.881Z,102364.79
2023-02-12T07:18:37.678Z,102364.39
2023-02-12T07:21:05.535Z,102373.20
2023-02-12T07:23:32.642Z,102375.73
2023-02-12T07:26:01.812Z,102376.05
2023-02-12T07:28:28.607Z,102378.04
2023-02-12T07:30:55.313Z,102383.58
2023-02-12T07:33:21.919Z,102388.23
2023-02-12T07:35:48.544Z,102390.71
2023-02-12T07:38:15.218Z,102391.39
2023-02-12T07:40:41.891Z,102391.41
2023-02-12T07:43:08.497Z,102394.95
2023-02-12T07:45:36.212Z,102388.66
2023-02-12T07:48:02.876Z,102399.02
2023-02-12T07:50:29.516Z,102403.96
2023-02-12T07:52:56.206Z,102408.20
2023-02-12T07:55:22.915Z,102411.36
2023-02-12T07:57:49.586Z,102416.70
2023-02-12T08:00:16.686Z,102417.30
2023-02-12T08:02:43.441Z,102413.84
2023-02-12T08:05:10.137Z,102409.09
2023-02-12T08:07:36.985Z,102407.34
2023-02-12T08:10:03.649Z,102414.55
2023-02-12T08:12:30.301Z,102421.39
2023-02-12T08:14:56.940Z,102423.61
2023-02-12T08:17:23.673Z,102427.84
2023-02-12T08:19:50.261Z,102441.03
2023-02-12T08:22:16.921Z,102441.99
2023-02-12T08:24:43.615Z,102442.98
2023-02-12T08:27:10.217Z,102441.83
2023-02-12T08:29:36.814Z,102448.18
2023-02-12T08:32:04.385Z,102456.90
2023-02-12T08:34:33.971Z,102458.10
2023-02-12T08:37:01.225Z,102460.77
2023-02-12T08:39:29.487Z,102456.10
2023-02-12T08:41:58.160Z,102449.98
2023-02-12T08:44:25.625Z,102450.95
2023-02-12T08:46:53.298Z,102448.20
2023-02-12T08:49:23.118Z,102441.94
2023-02-12T08:51:52.838Z,102436.38
2023-02-12T08:54:22.360Z,102434.45
2023-02-12T08:56:49.587Z,102435.72
2023-02-12T08:59:17.057Z,102433.92
2023-02-12T09:01:44.709Z,102431.23
2023-02-12T09:04:18.156Z,102428.36
2023-02-12T09:06:46.334Z,102422.71
2023-02-12T09:09:13.832Z,102426.99
2023-02-12T09:11:40.654Z,102426.96
2023-02-12T09:14:10.492Z,102424.25
2023-02-12T09:16:40.499Z,102420.83
2023-02-12T09:19:08.421Z,102426.70
2023-02-12T09:21:35.157Z,102434.56
2023-02-12T09:24:03.566Z,102428.63
2023-02-12T09:26:30.844Z,102429.96
2023-02-12T09:28:57.842Z,102435.88
2023-02-12T09:31:27.621Z,102435.02
2023-02-12T09:33:57.811Z,102436.63
2023-02-12T09:36:24.524Z,102432.88
2023-02-12T09:38:51.340Z,102430.07
2023-02-12T09:41:36.090Z,102428.70
2023-02-12T09:44:24.705Z,102430.48
2023-02-12T09:47:01.443Z,102436.98
2023-02-12T09:49:34.024Z,102435.98
2023-02-12T09:52:00.764Z,102436.75
2023-02-12T09:54:37.114Z,102440.09
2023-02-12T09:57:12.777Z,102442.80
2023-02-12T09:59:44.489Z,102445.73
2023-02-12T10:02:20.120Z,102445.20
2023-02-12T10:05:00.254Z,102455.86
2023-02-12T10:07:43.058Z,102456.45
2023-02-12T10:10:39.157Z,102463.44
2023-02-12T10:13:08.774Z,102469.70
2023-02-12T10:15:52.377Z,102472.50
2023-02-12T10:18:21.706Z,102473.90
2023-02-12T10:20:54.129Z,102473.35
2023-02-12T10:23:48.364Z,102473.55
2023-02-12T10:26:30.560Z,102478.46
2023-02-12T10:29:18.968Z,102473.70
2023-02-12T10:31:51.446Z,102469.45
2023-02-12T10:34:21.213Z,102464.02
2023-02-12T10:36:50.631Z,102459.23
2023-02-12T10:39:26.694Z,102457.79
2023-02-12T10:42:04.093Z,102457.46
2023-02-12T10:44:31.487Z,102459.31
2023-02-12T10:46:58.142Z,102461.52
2023-02-12T10:49:25.251Z,102459.89
2023-02-12T10:52:10.103Z,102463.06
2023-02-12T10:54:45.079Z,102461.80
2023-02-12T10:57:26.014Z,102457.17
2023-02-12T10:59:55.369Z,102453.13
2023-02-12T11:02:28.115Z,102452.40
2023-02-12T11:04:56.363Z,102454.27
2023-02-12T11:07:24.273Z,102457.51
2023-02-12T11:09:53.682Z,102455.39
2023-02-12T11:12:31.142Z,102450.61
2023-02-12T11:15:04.455Z,102452.77
2023-02-12T11:17:37.745Z,102453.89
2023-02-12T11:20:16.861Z,102453.45
2023-02-12T11:23:01.971Z,102451.94
2023-02-12T11:25:32.026Z,102447.75
2023-02-12T11:28:00.129Z,102448.20
2023-02-12T11:30:27.430Z,102453.73
2023-02-12T11:32:54.146Z,102456.16
2023-02-12T11:35:28.495Z,102457.61
2023-02-12T11:37:59.668Z,102457.61
2023-02-12T11:40:34.002Z,102459.85
2023-02-12T11:43:05.854Z,102459.79
2023-02-12T11:45:44.714Z,102462.08
2023-02-12T11:48:40.124Z,102464.92
2023-02-12T11:51:09.474Z,102462.61
2023-02-12T11:53:41.462Z,102462.31
2023-02-12T11:56:10.907Z,102464.78
2023-02-12T11:58:38.869Z,102465.91
2023-02-12T12:01:28.401Z,102469.05
2023-02-12T12:04:17.729Z,102460.45
2023-02-12T12:06:48.100Z,102455.00
2023-02-12T12:09:29.239Z,102451.77
2023-02-12T12:12:13.689Z,102448.17
2023-02-12T12:15:07.495Z,102441.35
2023-02-12T12:18:08.389Z,102436.64
2023-02-12T12:20:49.068Z,102432.19
2023-02-12T12:23:34.865Z,102429.52
2023-02-12T12:26:08.392Z,102426.52
2023-02-12T12:29:02.797Z,102426.39
2023-02-12T12:31:38.300Z,102425.57
2023-02-12T12:34:23.873Z,102426.70
2023-02-12T12:37:21.623Z,102426.02
2023-02-12T12:39:54.422Z,102417.48
2023-02-12T12:43:00.781Z,102415.77
2023-02-12T12:45:30.587Z,102413.25
2023-02-12T12:48:31.629Z,102416.74
2023-02-12T12:51:16.435Z,102417.00
2023-02-12T12:53:59.331Z,102418.85
2023-02-12T12:56:44.209Z,102420.20
2023-02-12T12:59:38.085Z,102416.72
2023-02-12T13:02:16.931Z,102410.33
2023-02-12T13:05:02.287Z,102404.00
2023-02-12T13:07:47.692Z,102401.92
2023-02-12T13:10:20.775Z,102407.13
2023-02-12T13:12:56.538Z,102409.59
2023-02-12T13:15:30.042Z,102407.92
2023-02-12T13:18:18.453Z,102418.48
2023-02-12T13:21:09.486Z,102419.40
2023-02-12T13:23:42.312Z,102424.20
2023-02-12T13:26:21.187Z,102422.44
2023-02-12T13:28:55.432Z,102409.10
2023-02-12T13:31:34.558Z,102413.58
2023-02-12T13:34:07.146Z,102415.91
2023-02-12T13:36:36.809Z,102417.56
2023-02-12T13:39:12.421Z,102424.47
2023-02-12T13:41:44.299Z,102424.61
2023-02-12T13:44:31.398Z,102417.97
2023-02-12T13:47:15.108Z,102430.64
2023-02-12T13:49:53.655Z,102434.50
2023-02-12T13:52:32.389Z,102441.61
2023-02-12T13:55:05.139Z,102441.71
2023-02-12T13:57:31.858Z,102447.27
2023-02-12T13:59:59.918Z,102449.52
2023-02-12T14:02:38.618Z,102448.50
2023-02-12T14:05:18.957Z,102448.98
2023-02-12T14:07:49.342Z,102449.37
2023-02-12T14:10:20.631Z,102448.14
2023-02-12T14:12:47.904Z,102450.46
2023-02-12T14:15:33.121Z,102449.41
2023-02-12T14:18:02.904Z,102453.30
2023-02-12T14:20:38.074Z,102448.25
2023-02-12T14:23:26.918Z,102455.56
2023-02-12T14:26:00.404Z,102460.02
2023-02-12T14:28:42.157Z,102462.34
2023-02-12T14:31:17.921Z,102462.30
2023-02-12T14:33:52.660Z,102456.77
2023-02-12T14:36:41.441Z,102457.59
2023-02-12T14:39:20.464Z,102461.56
2023-02-12T14:41:49.017Z,102466.52
2023-02-12T14:44:18.464Z,102466.60
2023-02-12T14:46:51.839Z,102469.73
2023-02-12T14:49:38.451Z,102470.85
2023-02-12T14:52:11.885Z,102470.08
2023-02-12T14:54:46.333Z,102476.45
2023-02-12T14:57:27.302Z,102468.56
2023-02-12T15:00:01.376Z,102471.23
2023-02-12T15:02:32.525Z,102477.64
2023-02-12T15:05:24.194Z,102476.12
2023-02-12T15:07:56.131Z,102485.57
2023-02-12T15:10:27.932Z,102482.66
2023-02-12T15:13:09.572Z,102486.49
2023-02-12T15:15:45.639Z,102490.55
2023-02-12T15:18:20.548Z,102485.64
2023-02-12T15:21:00.885Z,102482.90
2023-02-12T15:23:41.360Z,102484.44
2023-02-12T15:26:15.583Z,102492.69
2023-02-12T15:28:43.198Z,102494.35
2023-02-12T15:31:10.960Z,102499.07
2023-02-12T15:33:45.668Z,102499.54
2023-02-12T15:36:18.939Z,102499.02
2023-02-12T15:38:49.561Z,102506.35
2023-02-12T15:41:36.087Z,102503.84
2023-02-12T15:44:18.922Z,102504.05
2023-02-12T15:47:01.272Z,102507.48
2023-02-12T15:49:34.268Z,102513.15
2023-02-12T15:52:07.301Z,102521.12
2023-02-12T15:54:34.276Z,102519.88
2023-02-12T15:57:02.209Z,102520.05
2023-02-12T15:59:29.525Z,102518.94
2023-02-12T16:02:03.574Z,102514.30
2023-02-12T16:04:34.101Z,102522.62
2023-02-12T16:07:01.862Z,102529.23
2023-02-12T16:09:34.151Z,102529.20
2023-02-12T16:12:05.311Z,102532.80
2023-02-12T16:14:47.055Z,102533.14
2023-02-12T16:17:25.660Z,102533.86
2023-02-12T16:19:58.502Z,102534.91
2023-02-12T16:22:39.165Z,102539.73
2023-02-12T16:25:17.273Z,102542.02
2023-02-12T16:28:05.899Z,102542.94
2023-02-12T16:30:38.809Z,102544.56
2023-02-12T16:33:32.275Z,102545.27
2023-02-12T16:36:11.636Z,102545.53
2023-02-12T16:38:43.812Z,102548.59
2023-02-12T16:41:25.678Z,102548.98
2023-02-12T16:44:15.136Z,102549.91
2023-02-12T16:46:47.551Z,102560.63
2023-02-12T16:49:26.103Z,102568.75
2023-02-12T16:52:07.453Z,102574.64
2023-02-12T16:54:35.338Z,102574.56
2023-02-12T16:57:02.445Z,102581.30
2023-02-12T16:59:30.316Z,102583.17
2023-02-12T17:02:00.412Z,102587.16
2023-02-12T17:04:27.535Z,102594.51
2023-02-12T17:06:54.684Z,102594.73
2023-02-12T17:09:21.376Z,102598.60
2023-02-12T17:11:47.973Z,102603.05
2023-02-12T17:14:17.585Z,102603.61
2023-02-12T17:16:45.244Z,102608.65
2023-02-12T17:19:12.596Z,102611.20
2023-02-12T17:21:43.264Z,102616.21
2023-02-12T17:24:18.284Z,102618.19
2023-02-12T17:26:45.095Z,102620.17
2023-02-12T17:29:12.180Z,102621.45
2023-02-12T17:31:40.439Z,102623.52
2023-02-12T17:34:07.250Z,102627.51
2023-02-12T17:36:34.469Z,102628.77
2023-02-12T17:39:04.985Z,102632.92
2023-02-12T17:41:32.088Z,102637.11
2023-02-12T17:43:58.897Z,102637.78
2023-02-12T17:46:28.658Z,102638.14
2023-02-12T17:48:56.757Z,102646.85
2023-02-12T17:51:24.373Z,102647.39
2023-02-12T17:53:51.920Z,102645.94
2023-02-12T17:56:21.768Z,102651.77
2023-02-12T17:58:49.442Z,102652.62
2023-02-12T18:01:19.034Z,102659.33
2023-02-12T18:03:46.164Z,102661.96
2023-02-12T18:06:14.156Z,102661.63
2023-02-12T18:08:42.011Z,102661.77
2023-02-12T18:11:10.658Z,102664.60
2023-02-12T18:13:38.068Z,102663.79
2023-02-12T18:16:10.113Z,102663.31
2023-02-12T18:18:37.633Z,102663.31
2023-02-12T18:21:11.924Z,102664.31
2023-02-12T18:23:39.208Z,102662.73
2023-02-12T18:26:08.684Z,102665.00
2023-02-12T18:28:36.310Z,102665.05
2023-02-12T18:31:04.106Z,102665.81
2023-02-12T18:33:31.338Z,102668.27
2023-02-12T18:36:01.786Z,102667.80
2023-02-12T18:38:29.304Z,102670.55
2023-02-12T18:40:56.690Z,102669.69
2023-02-12T18:43:24.803Z,102670.29
2023-02-12T18:45:51.773Z,102677.80
2023-02-12T18:48:18.514Z,102678.52
2023-02-12T18:50:45.364Z,102680.66
2023-02-12T18:53:12.140Z,102676.13
2023-02-12T18:55:39.662Z,102678.96
2023-02-12T18:58:06.310Z,102683.48
2023-02-12T19:00:33.048Z,102683.19
2023-02-12T19:03:00.017Z,102683.41
2023-02-12T19:05:26.889Z,102685.34
2023-02-12T19:07:53.891Z,102683.88
2023-02-12T19:10:22.071Z,102685.09
2023-02-12T19:12:48.923Z,102690.11
2023-02-12T19:15:16.891Z,102694.20
2023-02-12T19:17:43.623Z,102698.54
2023-02-12T19:20:10.803Z,102702.36
2023-02-12T19:22:38.456Z,102704.23
2023-02-12T19:25:05.484Z,102707.38
2023-02-12T19:27:32.546Z,102704.80
2023-02-12T19:30:02.875Z,102708.69
2023-02-12T19:32:29.529Z,102705.40
2023-02-12T19:34:56.276Z,102705.44
2023-02-12T19:37:22.963Z,102703.04
2023-02-12T19:39:49.635Z,102706.46
2023-02-12T19:42:17.686Z,102712.36
2023-02-12T19:44:46.594Z,102712.69
2023-02-12T19:47:13.340Z,102717.91
2023-02-12T19:49:40.169Z,102725.34
2023-02-12T19:52:07.732Z,102727.50
2023-02-12T19:54:35.020Z,102726.13
2023-02-12T19:57:03.370Z,102729.06
2023-02-12T19:59:30.164Z,102733.89
2023-02-12T20:01:56.889Z,102737.54
2023-02-12T20:04:24.228Z,102739.92
2023-02-12T20:06:51.384Z,102740.88
2023-02-12T20:09:18.815Z,102738.41
2023-02-12T20:11:45.488Z,102743.80
2023-02-12T20:14:14.311Z,102745.49
2023-02-12T20:16:43.829Z,102745.86
2023-02-12T20:19:27.171Z,102752.29
2023-02-12T20:21:56.054Z,102755.27
2023-02-12T20:24:24.671Z,102754.99
2023-02-12T20:26:51.863Z,102753.42
2023-02-12T20:29:19.275Z,102752.14
2023-02-12T20:31:46.533Z,102751.42
2023-02-12T20:34:16.276Z,102756.13
2023-02-12T20:36:46.347Z,102760.81
2023-02-12T20:39:16.523Z,102757.86
2023-02-12T20:41:44.097Z,102761.27
2023-02-12T20:44:17.884Z,102763.05
2023-02-12T20:46:46.503Z,102765.85
2023-02-12T20:49:16.313Z,102765.40
2023-02-12T20:51:43.998Z,102769.39
2023-02-12T20:54:11.455Z,102770.39
2023-02-12T20:56:39.038Z,102773.03
2023-02-12T20:59:08.481Z,102780.86
2023-02-12T21:01:38.330Z,102780.41
2023-02-12T21:04:07.981Z,102778.52
2023-02-12T21:06:35.792Z,102778.52
2023-02-12T21:09:03.549Z,102780.63
2023-02-12T21:11:30.442Z,102785.06
2023-02-12T21:14:12.521Z,102783.69
2023-02-12T21:16:46.020Z,102782.43
2023-02-12T21:19:17.932Z,102784.41
2023-02-12T21:21:45.533Z,102783.67
2023-02-12T21:24:15.722Z,102785.73
2023-02-12T21:26:42.753Z,102783.38
2023-02-12T21:29:09.386Z,102786.94
2023-02-12T21:31:38.903Z,102790.39
2023-02-12T21:34:07.866Z,102790.88
2023-02-12T21:36:38.245Z,102793.90
2023-02-12T21:39:07.128Z,102796.20
2023-02-12T21:41:36.815Z,102801.90
2023-02-12T21:44:10.401Z,102801.13
2023-02-12T21:46:37.104Z,102804.42
2023-02-12T21:49:05.218Z,102803.31
2023-02-12T21:51:43.041Z,102806.16
2023-02-12T21:54:12.433Z,102809.30
2023-02-12T21:56:41.420Z,102811.66
2023-02-12T21:59:08.879Z,102813.53
2023-02-12T22:01:39.929Z,102812.93
2023-02-12T22:04:10.072Z,102815.09
2023-02-12T22:06:42.866Z,102816.14
2023-02-12T22:09:11.149Z,102821.75
2023-02-12T22:11:39.154Z,102819.92
2023-02-12T22:14:08.359Z,102824.58
2023-02-12T22:16:36.152Z,102823.78
2023-02-12T22:19:04.279Z,102824.56
2023-02-12T22:21:33.964Z,102827.52
2023-02-12T22:24:02.450Z,102828.60
2023-02-12T22:26:30.605Z,102826.77
2023-02-12T22:29:00.113Z,102831.77
2023-02-12T22:31:29.487Z,102834.85
2023-02-12T22:33:59.259Z,102829.39
2023-02-12T22:36:27.372Z,102827.34
2023-02-12T22:38:56.786Z,102833.61
2023-02-12T22:41:23.554Z,102834.38
2023-02-12T22:43:50.217Z,102839.71
2023-02-12T22:46:17.701Z,102847.45
2023-02-12T22:48:44.677Z,102848.16
2023-02-12T22:51:15.085Z,102852.39
2023-02-12T22:53:41.737Z,102851.34
2023-02-12T22:56:09.261Z,102853.58
2023-02-12T22:58:38.186Z,102853.16
2023-02-12T23:01:13.146Z,102856.33
2023-02-12T23:03:40.505Z,102858.33
2023-02-12T23:06:11.016Z,102860.11
2023-02-12T23:08:37.715Z,102860.30
2023-02-12T23:11:06.462Z,102863.81
2023-02-12T23:13:34.095Z,102870.17
2023-02-12T23:16:01.502Z,102873.48
2023-02-12T23:18:28.137Z,102869.04
2023-02-12T23:20:55.343Z,102876.90
2023-02-12T23:23:22.475Z,102874.46
2023-02-12T23:25:49.892Z,102876.16
2023-02-12T23:28:17.689Z,102878.67
2023-02-12T23:30:44.436Z,102873.27
2023-02-12T23:33:11.502Z,102876.08
2023-02-12T23:35:38.400Z,102876.88
2023-02-12T23:38:05.719Z,102871.84
2023-02-12T23:40:33.561Z,102868.70
2023-02-12T23:43:00.725Z,102871.37
2023-02-12T23:45:28.685Z,102872.48
2023-02-12T23:47:55.353Z,102877.27
2023-02-12T23:50:22.286Z,102872.11
2023-02-12T23:52:49.251Z,102870.14
2023-02-12T23:55:18.086Z,102867.38
2023-02-12T23:57:44.798Z,102871.36
